createdAt,value
2023-05-11T00:03:31.616Z,0
2023-05-11T00:08:35.668Z,0
2023-05-11T00:13:39.925Z,0
2023-05-11T00:18:44.071Z,0
2023-05-11T00:23:48.257Z,0
2023-05-11T00:28:52.389Z,0
2023-05-11T00:33:56.539Z,0
2023-05-11T00:39:00.685Z,0
2023-05-11T00:44:04.882Z,0
2023-05-11T00:49:08.974Z,0
2023-05-11T00:54:13.178Z,0
2023-05-11T00:59:17.367Z,0
2023-05-11T01:04:21.506Z,0
2023-05-11T01:09:25.630Z,0
2023-05-11T01:14:29.817Z,0
2023-05-11T01:19:33.972Z,0
2023-05-11T01:24:38.141Z,0
2023-05-11T01:29:42.290Z,0
2023-05-11T01:34:46.483Z,0
2023-05-11T01:39:50.597Z,0
2023-05-11T01:44:54.785Z,0
2023-05-11T01:49:58.954Z,0
2023-05-11T01:55:03.107Z,0
2023-05-11T02:00:07.266Z,0
2023-05-11T02:05:11.438Z,0
2023-05-11T02:10:15.662Z,0
2023-05-11T02:15:19.718Z,0
2023-05-11T02:20:23.886Z,0
2023-05-11T02:25:28.096Z,0
2023-05-11T02:30:32.302Z,0
2023-05-11T02:35:36.411Z,0
2023-05-11T02:40:40.554Z,0
2023-05-11T02:45:42.856Z,0
2023-05-11T02:50:46.965Z,0
2023-05-11T02:55:51.147Z,0
2023-05-11T03:00:55.389Z,0
2023-05-11T03:05:59.519Z,0
2023-05-11T03:11:03.597Z,0
2023-05-11T03:16:07.919Z,0
2023-05-11T03:21:11.905Z,0
2023-05-11T03:26:16.162Z,1
2023-05-11T03:31:20.289Z,5
2023-05-11T03:36:24.414Z,11
2023-05-11T03:41:28.544Z,21
2023-05-11T03:46:32.949Z,42
2023-05-11T03:51:37.266Z,60
2023-05-11T03:56:41.101Z,88
2023-05-11T04:01:45.216Z,103
2023-05-11T04:06:49.408Z,102
2023-05-11T04:11:53.486Z,148
2023-05-11T04:16:57.701Z,214
2023-05-11T04:22:01.839Z,248
2023-05-11T04:27:06.062Z,255
2023-05-11T04:32:10.169Z,310
2023-05-11T04:37:14.363Z,446
2023-05-11T04:42:18.559Z,598
2023-05-11T04:47:22.714Z,772
2023-05-11T04:52:26.828Z,967
2023-05-11T04:57:31.009Z,1221
2023-05-11T05:02:35.204Z,1547
2023-05-11T05:07:39.351Z,2028
2023-05-11T05:12:43.467Z,2220
2023-05-11T05:17:47.857Z,2675
2023-05-11T05:22:51.735Z,2617
2023-05-11T05:27:56.003Z,2442
2023-05-11T05:33:00.173Z,2470
2023-05-11T05:38:04.262Z,2770
2023-05-11T05:43:08.485Z,2990
2023-05-11T05:48:12.595Z,3096
2023-05-11T05:53:16.778Z,4170
2023-05-11T05:58:20.996Z,3463
2023-05-11T06:03:27.644Z,3770
2023-05-11T06:08:29.261Z,3621
2023-05-11T06:13:33.361Z,4510
2023-05-11T06:18:37.697Z,4861
2023-05-11T06:23:41.733Z,4150
2023-05-11T06:28:46.004Z,3931
2023-05-11T06:33:50.040Z,4603
2023-05-11T06:38:54.196Z,5211
2023-05-11T06:43:58.357Z,5697
2023-05-11T06:49:02.520Z,4685
2023-05-11T06:54:06.708Z,5740
2023-05-11T06:59:10.887Z,7113
2023-05-11T07:04:15.052Z,6907
2023-05-11T07:09:19.184Z,6543
2023-05-11T07:14:23.324Z,8357
2023-05-11T07:19:27.608Z,9136
2023-05-11T07:24:31.606Z,6803
2023-05-11T07:29:35.851Z,6579
2023-05-11T07:34:39.962Z,5600
2023-05-11T07:39:44.157Z,6828
2023-05-11T07:44:48.297Z,6799
2023-05-11T07:49:52.480Z,7929
2023-05-11T07:54:56.589Z,11979
2023-05-11T08:00:00.972Z,8875
2023-05-11T08:05:04.980Z,7815
2023-05-11T08:10:09.153Z,8795
2023-05-11T08:15:11.391Z,9948
2023-05-11T08:20:15.537Z,10991
2023-05-11T08:25:19.820Z,12266
2023-05-11T08:30:23.892Z,11177
2023-05-11T08:35:28.013Z,9275
2023-05-11T08:40:32.154Z,8290
2023-05-11T08:45:36.367Z,8965
2023-05-11T08:50:40.461Z,9755
2023-05-11T08:55:44.625Z,10813
2023-05-11T09:00:48.795Z,11754
2023-05-11T09:05:53.038Z,11963
2023-05-11T09:10:57.146Z,11541
2023-05-11T09:16:01.286Z,10860
2023-05-11T09:21:05.410Z,10165
2023-05-11T09:26:09.580Z,11210
2023-05-11T09:31:13.848Z,10273
2023-05-11T09:36:17.936Z,10913
2023-05-11T09:41:22.162Z,10723
2023-05-11T09:46:26.251Z,10445
2023-05-11T09:51:30.399Z,9949
2023-05-11T09:56:35.295Z,10567
2023-05-11T10:01:38.733Z,9789
2023-05-11T10:06:42.854Z,6613
2023-05-11T10:11:47.022Z,5403
2023-05-11T10:16:51.194Z,4637
2023-05-11T10:21:55.360Z,3726
2023-05-11T10:26:59.519Z,4097
2023-05-11T10:32:03.688Z,5022
2023-05-11T10:37:07.783Z,7000
2023-05-11T10:42:11.980Z,8610
2023-05-11T10:47:16.139Z,9933
2023-05-11T10:52:20.357Z,10245
2023-05-11T10:57:24.466Z,9763
2023-05-11T11:02:28.632Z,12217
2023-05-11T11:07:32.733Z,12820
2023-05-11T11:12:36.993Z,13330
2023-05-11T11:17:41.124Z,13879
2023-05-11T11:22:45.239Z,14181
2023-05-11T11:27:49.459Z,15738
2023-05-11T11:32:53.633Z,15933
2023-05-11T11:37:57.777Z,15305
2023-05-11T11:43:01.943Z,14720
2023-05-11T11:48:06.118Z,15884
2023-05-11T11:53:10.246Z,15540
2023-05-11T11:58:14.356Z,15059
2023-05-11T12:03:18.653Z,14495
2023-05-11T12:08:22.666Z,15040
2023-05-11T12:13:26.836Z,16348
2023-05-11T12:18:31.082Z,16795
2023-05-11T12:23:35.128Z,17040
2023-05-11T12:28:39.343Z,16966
2023-05-11T12:33:43.504Z,16762
2023-05-11T12:38:47.644Z,16792
2023-05-11T12:43:51.819Z,16976
2023-05-11T12:48:57.352Z,16866
2023-05-11T12:54:00.155Z,16675
2023-05-11T12:59:04.290Z,16691
2023-05-11T13:04:08.515Z,16149
2023-05-11T13:09:12.584Z,15341
2023-05-11T13:14:16.988Z,13722
2023-05-11T13:19:20.854Z,15111
2023-05-11T13:24:25.048Z,14841
2023-05-11T13:29:29.225Z,13268
2023-05-11T13:34:33.386Z,13165
2023-05-11T13:39:37.540Z,11135
2023-05-11T13:44:39.820Z,9430
2023-05-11T13:49:43.980Z,4530
2023-05-11T13:54:48.143Z,1884
2023-05-11T13:59:52.328Z,1609
2023-05-11T14:04:56.477Z,1402
2023-05-11T14:10:00.587Z,1482
2023-05-11T14:15:02.935Z,2128
2023-05-11T14:20:07.017Z,2793
2023-05-11T14:25:11.166Z,3364
2023-05-11T14:30:15.396Z,3683
2023-05-11T14:35:19.731Z,4153
2023-05-11T14:40:23.673Z,3425
2023-05-11T14:45:27.816Z,3217
2023-05-11T14:50:31.978Z,6474
2023-05-11T14:55:36.190Z,6603
2023-05-11T15:00:40.366Z,5475
2023-05-11T15:05:44.531Z,3796
2023-05-11T15:10:48.678Z,3401
2023-05-11T15:15:52.912Z,1510
2023-05-11T15:20:56.962Z,1889
2023-05-11T15:26:01.128Z,3902
2023-05-11T15:31:05.295Z,3889
2023-05-11T15:36:09.464Z,5724
2023-05-11T15:41:13.573Z,6341
2023-05-11T15:46:17.820Z,5777
2023-05-11T15:51:21.914Z,5608
2023-05-11T15:56:26.061Z,5772
2023-05-11T16:01:30.238Z,5454
2023-05-11T16:06:34.430Z,5517
2023-05-11T16:11:38.550Z,5577
2023-05-11T16:16:42.758Z,5160
2023-05-11T16:21:46.874Z,4475
2023-05-11T16:26:51.033Z,4019
2023-05-11T16:31:55.368Z,3777
2023-05-11T16:36:59.579Z,3756
2023-05-11T16:42:03.486Z,3733
2023-05-11T16:47:07.682Z,3743
2023-05-11T16:52:11.933Z,3200
2023-05-11T16:57:16.069Z,3163
2023-05-11T17:02:20.255Z,2978
2023-05-11T17:07:24.348Z,2921
2023-05-11T17:12:28.462Z,2799
2023-05-11T17:17:32.691Z,2507
2023-05-11T17:32:45.475Z,1450
2023-05-11T17:37:49.308Z,1136
2023-05-11T17:42:53.415Z,934
2023-05-11T17:47:57.675Z,1201
2023-05-11T17:53:01.949Z,1229
2023-05-11T17:58:05.901Z,1483
2023-05-11T18:03:10.238Z,1399
2023-05-11T18:08:14.248Z,1290
2023-05-11T18:13:18.408Z,1095
2023-05-11T18:18:22.693Z,1070
2023-05-11T18:23:28.917Z,960
2023-05-11T18:28:30.939Z,709
2023-05-11T18:33:35.036Z,659
2023-05-11T18:38:39.219Z,510
2023-05-11T18:43:43.397Z,246
2023-05-11T18:48:47.577Z,170
2023-05-11T18:53:54.051Z,125
2023-05-11T18:58:55.863Z,70
2023-05-11T19:03:59.998Z,60
2023-05-11T19:09:04.171Z,48
2023-05-11T19:14:08.323Z,30
2023-05-11T19:19:12.585Z,22
2023-05-11T19:24:16.651Z,11
2023-05-11T19:29:20.869Z,5
2023-05-11T19:34:24.971Z,3
2023-05-11T19:39:29.122Z,1
2023-05-11T19:44:31.361Z,0
2023-05-11T19:49:35.611Z,0
2023-05-11T19:54:39.714Z,0
2023-05-11T19:59:43.836Z,0
2023-05-11T20:04:47.993Z,0
2023-05-11T20:09:52.251Z,0
2023-05-11T20:14:56.341Z,0
2023-05-11T20:20:00.511Z,0
2023-05-11T20:25:04.695Z,0
2023-05-11T20:30:08.845Z,0
2023-05-11T20:35:13.025Z,0
2023-05-11T20:45:21.307Z,0
2023-05-11T20:50:25.438Z,0
2023-05-11T20:55:29.667Z,0
2023-05-11T21:00:33.800Z,0
2023-05-11T21:05:37.962Z,0
2023-05-11T21:10:42.085Z,0
2023-05-11T21:15:46.291Z,0
2023-05-11T21:20:50.767Z,0
2023-05-11T21:25:54.629Z,0
2023-05-11T21:30:58.857Z,0
2023-05-11T21:36:04.358Z,0
2023-05-11T21:41:07.077Z,0
2023-05-11T21:46:11.256Z,0
2023-05-11T21:51:15.390Z,0
2023-05-11T21:56:19.563Z,0
2023-05-11T22:01:23.731Z,0
2023-05-11T22:06:27.871Z,0
2023-05-11T22:11:32.016Z,0
2023-05-11T22:16:36.209Z,0
2023-05-11T22:21:40.374Z,0
2023-05-11T22:26:44.635Z,0
2023-05-11T22:31:48.687Z,0
2023-05-11T22:36:52.887Z,0
2023-05-11T22:41:56.965Z,0
2023-05-11T22:47:01.144Z,0
2023-05-11T22:52:05.338Z,0
2023-05-11T22:57:09.479Z,0
2023-05-11T23:02:13.664Z,0
2023-05-11T23:07:17.757Z,0
2023-05-11T23:12:21.930Z,0
2023-05-11T23:17:26.196Z,0
2023-05-11T23:22:30.240Z,0
2023-05-11T23:27:34.433Z,0
2023-05-11T23:32:38.694Z,0
2023-05-11T23:37:42.775Z,0
2023-05-11T23:42:46.908Z,0
2023-05-11T23:47:51.163Z,0
2023-05-11T23:52:55.274Z,0
2023-05-11T23:57:59.430Z,0
